Time;durP1;ratioP1;P1;durP2;ratioP2;P2;SDS_P1;SDS_P2;PMS_P1;PMS_P2;Temp;Humidity;BMP_temperature;BMP_pressure;BME280_temperature;BME280_humidity;BME280_pressure;Samples;Min_cycle;Max_cycle;Signal;HPM_P1;HPM_P2
2023/12/18 00:00:38;;;;;;;1999.90;999.90;;;-0.90;99.90;;;;;;5098032;28;20390;-77
2023/12/18 00:03:04;;;;;;;1999.90;999.90;;;-1.00;99.90;;;;;;5096226;28;20029;-78
2023/12/18 00:05:29;;;;;;;1999.90;999.90;;;-1.00;99.90;;;;;;5095733;28;20394;-78
2023/12/18 00:07:55;;;;;;;1999.90;999.90;;;-1.00;99.90;;;;;;5096853;28;20482;-78
2023/12/18 00:10:20;;;;;;;1999.90;999.90;;;-1.00;99.90;;;;;;5097003;28;20508;-78
2023/12/18 00:12:46;;;;;;;1999.90;999.90;;;-1.00;99.90;;;;;;5095649;28;20028;-78
2023/12/18 00:15:12;;;;;;;1999.90;999.90;;;-1.10;99.90;;;;;;5097073;28;20131;-78
2023/12/18 00:17:37;;;;;;;1999.90;999.90;;;-1.10;99.90;;;;;;5119711;22;20055;-76
2023/12/18 00:20:03;;;;;;;1999.90;999.90;;;-1.00;99.90;;;;;;5095174;28;20037;-77
2023/12/18 00:22:29;;;;;;;1999.90;999.90;;;-1.00;99.90;;;;;;5096548;28;20036;-76
2023/12/18 00:24:54;;;;;;;1999.90;999.90;;;-1.00;99.90;;;;;;5096870;28;20442;-76
2023/12/18 00:27:20;;;;;;;1999.90;999.90;;;-1.10;99.90;;;;;;5095997;28;20040;-77
2023/12/18 00:29:45;;;;;;;1999.90;999.90;;;-1.10;99.90;;;;;;5095016;28;20036;-77
2023/12/18 00:32:11;;;;;;;1999.90;999.90;;;-1.10;99.90;;;;;;5095079;28;20394;-77
2023/12/18 00:34:40;;;;;;;1999.90;999.90;;;-1.10;99.90;;;;;;5094237;28;20090;-77
2023/12/18 00:37:06;;;;;;;1999.90;999.90;;;-1.10;99.90;;;;;;5096113;28;20090;-77
2023/12/18 00:39:32;;;;;;;1999.90;999.90;;;-1.00;99.90;;;;;;5096191;28;20076;-77
2023/12/18 00:41:57;;;;;;;1999.90;999.90;;;-0.90;99.90;;;;;;5094964;28;20389;-76
2023/12/18 00:44:23;;;;;;;1999.90;999.90;;;-0.90;99.90;;;;;;5096412;28;20032;-76
2023/12/18 00:46:49;;;;;;;1999.90;999.90;;;-0.90;99.90;;;;;;5095738;28;20147;-76
2023/12/18 00:49:15;;;;;;;1999.90;999.90;;;-0.80;99.90;;;;;;5096435;28;20037;-76
2023/12/18 00:51:40;;;;;;;1999.90;999.90;;;-0.70;99.90;;;;;;5094861;28;20108;-76
2023/12/18 00:54:06;;;;;;;1999.90;999.90;;;-0.60;99.90;;;;;;5094883;28;20119;-76
2023/12/18 00:56:32;;;;;;;1999.90;999.90;;;-0.60;99.90;;;;;;5095911;28;20083;-77
2023/12/18 00:58:57;;;;;;;1999.90;999.90;;;-0.60;99.90;;;;;;5094606;28;20041;-77
2023/12/18 01:01:23;;;;;;;1999.90;999.90;;;-0.50;99.90;;;;;;5094699;28;20510;-76
2023/12/18 01:03:49;;;;;;;1999.90;999.90;;;-0.30;99.90;;;;;;5096225;28;20544;-77
2023/12/18 01:06:14;;;;;;;1999.90;999.90;;;-0.40;99.90;;;;;;5093963;28;20120;-76
2023/12/18 01:08:40;;;;;;;1999.90;999.90;;;-0.40;99.90;;;;;;5094611;28;20029;-76
2023/12/18 01:11:05;;;;;;;1999.90;999.90;;;-0.40;99.90;;;;;;5094534;28;20470;-76
2023/12/18 01:13:31;;;;;;;1999.90;999.90;;;-0.30;99.90;;;;;;5095924;28;20446;-77
2023/12/18 01:15:58;;;;;;;1999.90;999.90;;;-0.30;99.90;;;;;;5093670;28;20047;-77
2023/12/18 01:18:24;;;;;;;1999.90;999.90;;;-0.20;99.90;;;;;;5094504;28;20528;-78
2023/12/18 01:20:50;;;;;;;1999.90;999.90;;;-0.20;99.90;;;;;;5094292;28;20083;-78
2023/12/18 01:23:16;;;;;;;1999.90;999.90;;;-0.20;99.90;;;;;;5094245;28;20024;-78
2023/12/18 01:25:41;;;;;;;1999.90;999.90;;;-0.10;99.90;;;;;;5093945;28;20401;-78
2023/12/18 01:28:07;;;;;;;1999.90;999.90;;;-0.10;99.90;;;;;;5094177;28;20090;-78
2023/12/18 01:30:32;;;;;;;1999.90;999.90;;;-0.10;99.90;;;;;;5095527;28;20057;-78
2023/12/18 01:32:58;;;;;;;1999.90;999.90;;;-0.20;99.90;;;;;;5094323;28;20032;-78
2023/12/18 01:35:24;;;;;;;1999.90;999.90;;;-0.20;99.90;;;;;;5094088;28;20103;-78
2023/12/18 01:37:49;;;;;;;1999.90;999.90;;;-0.20;99.90;;;;;;5093616;28;20428;-78
2023/12/18 01:40:15;;;;;;;1999.90;999.90;;;-0.20;99.90;;;;;;5094172;28;20059;-78
2023/12/18 01:42:47;;;;;;;1999.90;999.90;;;-0.20;99.90;;;;;;5095588;28;20028;-79
2023/12/18 01:45:12;;;;;;;1999.90;999.90;;;-0.10;99.90;;;;;;5092461;28;20048;-78
2023/12/18 01:47:39;;;;;;;1999.90;999.90;;;-0.20;99.90;;;;;;5093510;28;20032;-78
2023/12/18 01:50:06;;;;;;;1999.90;999.90;;;-0.20;99.90;;;;;;5095279;28;20033;-78
2023/12/18 01:52:33;;;;;;;1999.90;999.90;;;0.00;99.90;;;;;;5093882;28;20028;-78
2023/12/18 01:54:59;;;;;;;1999.90;999.90;;;-0.20;99.90;;;;;;5093935;28;20048;-78
2023/12/18 01:57:25;;;;;;;1999.90;999.90;;;-0.20;99.90;;;;;;5093393;28;20025;-78
2023/12/18 01:59:52;;;;;;;1999.90;999.90;;;-0.20;99.90;;;;;;5095335;28;20931;-78
2023/12/18 02:02:18;;;;;;;1999.90;999.90;;;-0.20;99.90;;;;;;5095478;28;20020;-78
2023/12/18 02:04:43;;;;;;;1999.90;999.90;;;-0.10;99.90;;;;;;5095090;28;20037;-78
2023/12/18 02:07:10;;;;;;;1999.90;999.90;;;-0.10;99.90;;;;;;5094781;28;20028;-78
2023/12/18 02:09:36;;;;;;;1999.90;999.90;;;-0.10;99.90;;;;;;5093733;28;20032;-78
2023/12/18 02:12:02;;;;;;;1999.90;999.90;;;-0.10;99.90;;;;;;5093585;28;20531;-78
2023/12/18 02:14:28;;;;;;;1999.90;999.90;;;-0.20;99.90;;;;;;5093678;28;20127;-78
2023/12/18 02:16:53;;;;;;;1999.90;999.90;;;-0.30;99.90;;;;;;5092674;28;20054;-78
2023/12/18 02:19:22;;;;;;;1999.90;999.90;;;-0.30;99.90;;;;;;5095112;28;20049;-78
2023/12/18 02:21:48;;;;;;;1999.90;999.90;;;-0.30;99.90;;;;;;5093657;28;20033;-78
2023/12/18 02:24:13;;;;;;;1999.90;999.90;;;-0.30;99.90;;;;;;5094933;28;20041;-78
2023/12/18 02:26:39;;;;;;;1999.90;999.90;;;-0.30;99.90;;;;;;5092938;28;20039;-78
2023/12/18 02:29:04;;;;;;;1999.90;999.90;;;-0.30;99.90;;;;;;5094840;28;20132;-78
2023/12/18 02:31:30;;;;;;;1999.90;999.90;;;-0.30;99.90;;;;;;5094739;28;20116;-78
2023/12/18 02:33:56;;;;;;;1999.90;999.90;;;-0.30;99.90;;;;;;5094619;28;20512;-78
2023/12/18 02:36:22;;;;;;;1999.90;999.90;;;-0.30;99.90;;;;;;5094508;28;20025;-78
2023/12/18 02:38:47;;;;;;;1999.90;999.90;;;-0.30;99.90;;;;;;5093231;28;20028;-78
2023/12/18 02:41:13;;;;;;;1999.90;999.90;;;-0.40;99.90;;;;;;5093269;28;20090;-78
2023/12/18 02:43:39;;;;;;;1999.90;999.90;;;-0.40;99.90;;;;;;5093221;28;20037;-79
2023/12/18 02:46:04;;;;;;;1999.90;999.90;;;-0.40;99.90;;;;;;5094338;28;20809;-78
2023/12/18 02:48:30;;;;;;;1999.90;999.90;;;-0.40;99.90;;;;;;5092522;28;20067;-78
2023/12/18 02:50:55;;;;;;;1999.90;999.90;;;-0.30;99.90;;;;;;5093161;28;20028;-80
2023/12/18 02:53:21;;;;;;;1999.90;999.90;;;-0.40;99.90;;;;;;5094740;28;20037;-78
2023/12/18 02:55:46;;;;;;;1999.90;999.90;;;-0.40;99.90;;;;;;5094126;28;20036;-78
2023/12/18 02:58:12;;;;;;;1999.90;999.90;;;-0.30;99.90;;;;;;5098122;28;20040;-79
2023/12/18 03:00:37;;;;;;;1999.90;999.90;;;-0.20;99.90;;;;;;5096574;28;20478;-78
2023/12/18 03:03:03;;;;;;;1999.90;999.90;;;-0.30;99.90;;;;;;5096613;28;20063;-78
2023/12/18 03:05:29;;;;;;;1999.90;999.90;;;-0.40;99.90;;;;;;5097080;28;20052;-78
2023/12/18 03:07:54;;;;;;;1999.90;999.90;;;-0.40;99.90;;;;;;5096358;28;20033;-78
2023/12/18 03:10:20;;;;;;;1999.90;999.90;;;-0.40;99.90;;;;;;5096473;28;20025;-78
2023/12/18 03:12:45;;;;;;;1999.90;999.90;;;-0.50;99.90;;;;;;5097725;28;20028;-78
2023/12/18 03:15:11;;;;;;;1999.90;999.90;;;-0.40;99.90;;;;;;5097770;28;20047;-79
2023/12/18 03:17:36;;;;;;;1999.90;999.90;;;-0.40;99.90;;;;;;5095834;28;20132;-78
2023/12/18 03:20:02;;;;;;;1999.90;999.90;;;-0.40;99.90;;;;;;5096379;28;20037;-78
2023/12/18 03:22:28;;;;;;;1999.90;999.90;;;-0.40;99.90;;;;;;5096254;28;20037;-79
2023/12/18 03:24:53;;;;;;;1999.90;999.90;;;-0.30;99.90;;;;;;5097645;28;20404;-78
2023/12/18 03:27:19;;;;;;;1999.90;999.90;;;-0.30;99.90;;;;;;5095816;28;20536;-78
2023/12/18 03:29:44;;;;;;;1999.90;999.90;;;-0.30;99.90;;;;;;5096010;28;20537;-79
2023/12/18 03:32:10;;;;;;;1999.90;999.90;;;-0.20;99.90;;;;;;5096262;28;20390;-77
2023/12/18 03:34:35;;;;;;;1999.90;999.90;;;-0.10;99.90;;;;;;5096076;28;20436;-78
2023/12/18 03:37:01;;;;;;;1999.90;999.90;;;-0.10;99.90;;;;;;5095561;28;20033;-78
2023/12/18 03:39:26;;;;;;;1999.90;999.90;;;-0.10;99.90;;;;;;5096006;28;20064;-78
2023/12/18 03:41:52;;;;;;;1999.90;999.90;;;-0.10;99.90;;;;;;5095935;28;20094;-78
2023/12/18 03:44:17;;;;;;;1999.90;999.90;;;-0.10;99.90;;;;;;5095938;28;20041;-78
2023/12/18 03:46:43;;;;;;;1999.90;999.90;;;0.00;99.90;;;;;;5097063;28;20028;-78
2023/12/18 03:49:09;;;;;;;1999.90;999.90;;;0.00;99.90;;;;;;5097220;28;20036;-78
2023/12/18 03:51:34;;;;;;;1999.90;999.90;;;0.00;99.90;;;;;;5097435;28;20040;-78
2023/12/18 03:54:00;;;;;;;1999.90;999.90;;;0.10;99.90;;;;;;5097363;28;20041;-79
2023/12/18 03:56:25;;;;;;;1999.90;999.90;;;0.10;99.90;;;;;;5095340;28;20028;-78
2023/12/18 03:58:51;;;;;;;1999.90;999.90;;;0.10;99.90;;;;;;5097281;28;20043;-78
2023/12/18 04:01:16;;;;;;;1999.90;999.90;;;0.10;99.90;;;;;;5095789;28;20037;-78
2023/12/18 04:03:42;;;;;;;1999.90;999.90;;;0.10;99.90;;;;;;5095723;28;20029;-78
2023/12/18 04:06:08;;;;;;;1999.90;999.90;;;0.10;99.90;;;;;;5096701;28;20043;-78
2023/12/18 04:08:34;;;;;;;1999.90;999.90;;;0.10;99.90;;;;;;5094580;28;20033;-78
2023/12/18 04:10:59;;;;;;;1999.90;999.90;;;0.20;99.90;;;;;;5096969;28;20090;-78
2023/12/18 04:13:25;;;;;;;1999.90;999.90;;;0.20;99.90;;;;;;5095485;28;20025;-79
2023/12/18 04:15:51;;;;;;;1999.90;999.90;;;0.10;99.90;;;;;;5094823;28;20037;-78
2023/12/18 04:18:16;;;;;;;1999.90;999.90;;;0.20;99.90;;;;;;5095437;28;20025;-78
2023/12/18 04:20:42;;;;;;;1999.90;999.90;;;0.20;99.90;;;;;;5095073;28;20044;-78
2023/12/18 04:23:08;;;;;;;1999.90;999.90;;;0.20;99.90;;;;;;5095289;28;20497;-79
2023/12/18 04:25:34;;;;;;;1999.90;999.90;;;0.10;99.90;;;;;;5095332;28;20075;-78
2023/12/18 04:27:59;;;;;;;1999.90;999.90;;;0.20;99.90;;;;;;5095034;28;20028;-78
2023/12/18 04:30:25;;;;;;;1999.90;999.90;;;0.20;99.90;;;;;;5096566;28;20037;-78
2023/12/18 04:32:50;;;;;;;1999.90;999.90;;;0.20;99.90;;;;;;5095146;28;20039;-79
2023/12/18 04:35:16;;;;;;;1999.90;999.90;;;0.20;99.90;;;;;;5096714;28;20040;-78
2023/12/18 04:37:41;;;;;;;1999.90;999.90;;;0.20;99.90;;;;;;5096069;28;20032;-78
2023/12/18 04:40:08;;;;;;;1999.90;999.90;;;0.20;99.90;;;;;;5094951;28;20040;-78
2023/12/18 04:42:33;;;;;;;1999.90;999.90;;;0.20;99.90;;;;;;5094911;28;20507;-79
2023/12/18 04:44:59;;;;;;;1999.90;999.90;;;0.20;99.90;;;;;;5096382;28;20041;-78
2023/12/18 04:47:24;;;;;;;1999.90;999.90;;;0.20;99.90;;;;;;5094572;28;20394;-78
2023/12/18 04:49:50;;;;;;;1999.90;999.90;;;0.20;99.90;;;;;;5094862;28;20386;-78
2023/12/18 04:52:15;;;;;;;1999.90;999.90;;;0.20;99.90;;;;;;5096350;28;20033;-78
2023/12/18 04:54:41;;;;;;;1999.90;999.90;;;0.20;99.90;;;;;;5094874;28;20068;-78
2023/12/18 04:57:06;;;;;;;1999.90;999.90;;;0.20;99.90;;;;;;5095533;28;20035;-78
2023/12/18 04:59:32;;;;;;;1999.90;999.90;;;0.20;99.90;;;;;;5094754;28;20036;-78
2023/12/18 05:01:57;;;;;;;1999.90;999.90;;;0.20;99.90;;;;;;5094650;28;20033;-78
2023/12/18 05:04:24;;;;;;;1999.90;999.90;;;0.20;99.90;;;;;;5094586;28;20036;-78
2023/12/18 05:06:50;;;;;;;1999.90;999.90;;;0.20;99.90;;;;;;5094153;28;20552;-79
2023/12/18 05:09:15;;;;;;;1999.90;999.90;;;0.20;99.90;;;;;;5094738;28;20044;-78
2023/12/18 05:11:41;;;;;;;1999.90;999.90;;;0.20;99.90;;;;;;5096299;28;20416;-79
2023/12/18 05:14:08;;;;;;;1999.90;999.90;;;0.10;99.90;;;;;;5096491;28;20163;-78
2023/12/18 05:16:33;;;;;;;1999.90;999.90;;;0.10;99.90;;;;;;5093683;28;20033;-78
2023/12/18 05:19:19;;;;;;;;;;;;;;;;;;;;;
2023/12/18 05:21:45;;;;;;;1999.90;999.90;;;0.10;99.90;;;;;;5094122;28;40363;-78
2023/12/18 05:24:11;;;;;;;1999.90;999.90;;;0.10;99.90;;;;;;5094304;28;20040;-78
2023/12/18 05:26:36;;;;;;;1999.90;999.90;;;0.10;99.90;;;;;;5093792;28;20104;-78
2023/12/18 05:29:02;;;;;;;1999.90;999.90;;;0.00;99.90;;;;;;5094235;28;20486;-78
2023/12/18 05:31:28;;;;;;;1999.90;999.90;;;0.00;99.90;;;;;;5094302;28;20036;-78
2023/12/18 05:33:54;;;;;;;1999.90;999.90;;;0.10;99.90;;;;;;5094267;28;20393;-79
2023/12/18 05:36:19;;;;;;;1999.90;999.90;;;0.00;99.90;;;;;;5093858;28;20064;-79
2023/12/18 05:38:45;;;;;;;1999.90;999.90;;;0.00;99.90;;;;;;5094250;28;20091;-79
2023/12/18 05:41:10;;;;;;;1999.90;999.90;;;0.10;99.90;;;;;;5094182;28;20046;-79
2023/12/18 05:43:36;;;;;;;1999.90;999.90;;;0.10;99.90;;;;;;5095808;28;20112;-79
2023/12/18 05:46:01;;;;;;;1999.90;999.90;;;-0.10;99.90;;;;;;5093694;28;20036;-80
2023/12/18 05:48:27;;;;;;;1999.90;999.90;;;-0.10;99.90;;;;;;5095403;28;20767;-79
2023/12/18 05:50:53;;;;;;;1999.90;999.90;;;-0.10;99.90;;;;;;5095773;28;20041;-79
2023/12/18 05:53:18;;;;;;;1999.90;999.90;;;-0.10;99.90;;;;;;5095177;28;20029;-79
2023/12/18 05:55:44;;;;;;;1999.90;999.90;;;0.00;99.90;;;;;;5094956;28;20066;-79
2023/12/18 05:58:09;;;;;;;1999.90;999.90;;;0.00;99.90;;;;;;5094052;28;20036;-79
2023/12/18 06:00:36;;;;;;;1999.90;999.90;;;0.00;99.90;;;;;;5095364;28;20040;-78
2023/12/18 06:03:01;;;;;;;1999.90;999.90;;;0.00;99.90;;;;;;5094164;28;20028;-78
2023/12/18 06:05:27;;;;;;;1999.90;999.90;;;0.00;99.90;;;;;;5096044;28;20520;-80
2023/12/18 06:07:52;;;;;;;1999.90;999.90;;;0.00;99.90;;;;;;5090489;28;20037;-79
2023/12/18 06:10:18;;;;;;;1999.90;999.90;;;0.00;99.90;;;;;;5090678;28;20036;-80
2023/12/18 06:12:43;;;;;;;1999.90;999.90;;;0.00;99.90;;;;;;5094840;28;20044;-79
2023/12/18 06:15:09;;;;;;;1999.90;999.90;;;0.00;99.90;;;;;;5093549;28;20028;-79
2023/12/18 06:17:34;;;;;;;1999.90;999.90;;;0.00;99.90;;;;;;5092280;28;20047;-79
2023/12/18 06:20:00;;;;;;;1999.90;999.90;;;0.10;99.90;;;;;;5107183;28;20032;-83
2023/12/18 06:22:26;;;;;;;1999.90;999.90;;;0.00;99.90;;;;;;5097956;28;20541;-79
2023/12/18 06:24:51;;;;;;;1999.90;999.90;;;0.00;99.90;;;;;;5097847;28;20047;-79
2023/12/18 06:27:17;;;;;;;1999.90;999.90;;;-0.10;99.90;;;;;;5097246;28;20036;-79
2023/12/18 06:29:43;;;;;;;1999.90;999.90;;;-0.10;99.90;;;;;;5099102;28;20047;-80
2023/12/18 06:32:09;;;;;;;1999.90;999.90;;;-0.10;99.90;;;;;;5100632;28;20035;-80
2023/12/18 06:34:34;;;;;;;1999.90;999.90;;;-0.20;99.90;;;;;;5101908;28;20093;-79
2023/12/18 06:37:00;;;;;;;1999.90;999.90;;;-0.20;99.90;;;;;;5099801;28;20119;-80
2023/12/18 06:39:25;;;;;;;1999.90;999.90;;;-0.30;99.90;;;;;;5102429;28;20047;-80
2023/12/18 06:41:51;;;;;;;1999.90;999.90;;;-0.30;99.90;;;;;;5102795;28;20029;-80
2023/12/18 06:44:16;;;;;;;1999.90;999.90;;;-0.20;99.90;;;;;;5103240;28;20455;-80
2023/12/18 06:46:42;;;;;;;1999.90;999.90;;;-0.30;99.90;;;;;;5101884;28;20470;-79
2023/12/18 06:49:08;;;;;;;1999.90;999.90;;;-0.20;99.90;;;;;;5100767;28;20119;-80
2023/12/18 06:51:33;;;;;;;1999.90;999.90;;;-0.20;99.90;;;;;;5099825;28;20428;-80
2023/12/18 06:53:59;;;;;;;1999.90;999.90;;;-0.30;99.90;;;;;;5101233;28;20178;-82
2023/12/18 06:56:24;;;;;;;1999.90;999.90;;;-0.30;99.90;;;;;;5102885;28;20094;-79
2023/12/18 06:58:50;;;;;;;1999.90;999.90;;;-0.30;99.90;;;;;;5104956;28;20055;-79
2023/12/18 07:01:16;;;;;;;1999.90;999.90;;;-0.40;99.90;;;;;;5105581;28;20386;-79
2023/12/18 07:03:42;;;;;;;1999.90;999.90;;;-0.40;99.90;;;;;;5103222;28;20020;-78
2023/12/18 07:06:07;;;;;;;1999.90;999.90;;;-0.30;99.90;;;;;;5103011;28;20039;-80
2023/12/18 07:08:33;;;;;;;1999.90;999.90;;;-0.30;99.90;;;;;;5103950;28;20035;-79
2023/12/18 07:10:59;;;;;;;1999.90;999.90;;;-0.30;99.90;;;;;;5104381;28;20375;-79
2023/12/18 07:13:25;;;;;;;1999.90;999.90;;;-0.30;99.90;;;;;;5104776;28;20489;-79
2023/12/18 07:15:50;;;;;;;1999.90;999.90;;;-0.30;99.90;;;;;;5103492;28;20059;-79
2023/12/18 07:18:17;;;;;;;1999.90;999.90;;;-0.30;99.90;;;;;;5103768;28;20167;-79
2023/12/18 07:20:43;;;;;;;1999.90;999.90;;;-0.30;99.90;;;;;;5107162;28;20041;-82
2023/12/18 07:23:39;;;;;;;1999.90;999.90;;;-0.30;99.90;;;;;;5104456;28;20800;-79
2023/12/18 07:26:08;;;;;;;1999.90;999.90;;;-0.30;99.90;;;;;;5098229;28;20162;-80
2023/12/18 07:28:34;;;;;;;1999.90;999.90;;;-0.20;99.90;;;;;;5103858;28;20032;-83
2023/12/18 07:30:59;;;;;;;1999.90;999.90;;;-0.30;99.90;;;;;;5104915;28;20029;-80
2023/12/18 07:33:25;;;;;;;1999.90;999.90;;;-0.30;99.90;;;;;;5105697;28;20086;-81
2023/12/18 07:35:52;;;;;;;1999.90;999.90;;;-0.30;99.90;;;;;;5096384;28;20398;-81
2023/12/18 07:38:17;;;;;;;1999.90;999.90;;;-0.40;99.90;;;;;;5106790;28;20024;-81
2023/12/18 07:40:43;;;;;;;1999.90;999.90;;;-0.30;99.90;;;;;;5106100;28;20036;-81
2023/12/18 07:43:09;;;;;;;1999.90;999.90;;;-0.40;99.90;;;;;;5107512;28;20028;-82
2023/12/18 07:45:34;;;;;;;1999.90;999.90;;;-0.40;99.90;;;;;;5099834;28;20489;-80
2023/12/18 07:48:00;;;;;;;1999.90;999.90;;;-0.40;99.90;;;;;;5098198;28;20441;-80
2023/12/18 07:50:26;;;;;;;1999.90;999.90;;;-0.40;99.90;;;;;;5098116;28;20446;-79
2023/12/18 07:52:51;;;;;;;1999.90;999.90;;;-0.50;99.90;;;;;;5096037;28;20035;-80
2023/12/18 07:55:17;;;;;;;1999.90;999.90;;;-0.50;99.90;;;;;;5098028;28;20039;-80
2023/12/18 07:57:42;;;;;;;1999.90;999.90;;;-0.50;99.90;;;;;;5097624;28;20025;-80
2023/12/18 08:00:08;;;;;;;1999.90;999.90;;;-0.50;99.90;;;;;;5097902;28;20082;-80
2023/12/18 08:02:34;;;;;;;1999.90;999.90;;;-0.40;99.90;;;;;;5097935;28;20508;-81
2023/12/18 08:05:00;;;;;;;1999.90;999.90;;;-0.40;99.90;;;;;;5097152;28;20047;-80
2023/12/18 08:07:25;;;;;;;1999.90;999.90;;;-0.40;99.90;;;;;;5109470;28;20035;-82
2023/12/18 08:09:51;;;;;;;1999.90;999.90;;;-0.40;99.90;;;;;;5121116;28;20040;-80
2023/12/18 08:12:17;;;;;;;1999.90;999.90;;;-0.50;99.90;;;;;;5123429;28;20036;-82
2023/12/18 08:14:43;;;;;;;1999.90;999.90;;;-0.40;99.90;;;;;;5119229;28;20055;-83
2023/12/18 08:17:11;;;;;;;1999.90;999.90;;;-0.40;99.90;;;;;;5119632;28;20040;-80
2023/12/18 08:19:36;;;;;;;1999.90;999.90;;;-0.30;99.90;;;;;;5120520;28;20047;-80
2023/12/18 08:22:02;;;;;;;1999.90;999.90;;;-0.30;99.90;;;;;;5120861;28;20024;-79
2023/12/18 08:24:27;;;;;;;1999.90;999.90;;;-0.20;99.90;;;;;;5123396;28;20032;-80
2023/12/18 08:26:53;;;;;;;1999.90;999.90;;;-0.20;99.90;;;;;;5123956;27;20032;-80
2023/12/18 08:29:19;;;;;;;1999.90;999.90;;;-0.20;99.90;;;;;;5120559;28;20079;-80
2023/12/18 08:31:44;;;;;;;1999.90;999.90;;;-0.10;99.90;;;;;;5120223;28;20020;-76
2023/12/18 08:34:10;;;;;;;1999.90;999.90;;;-0.10;99.90;;;;;;5121850;28;20430;-79
2023/12/18 08:36:36;;;;;;;1999.90;999.90;;;-0.10;99.90;;;;;;5128537;27;20027;-79
2023/12/18 08:39:03;;;;;;;1999.90;999.90;;;0.00;99.90;;;;;;5133669;28;20502;-79
2023/12/18 08:41:28;;;;;;;1999.90;999.90;;;0.00;99.90;;;;;;5118097;28;20032;-78
2023/12/18 08:43:54;;;;;;;1999.90;999.90;;;0.00;99.90;;;;;;5121661;28;20072;-83
2023/12/18 08:46:19;;;;;;;1999.90;999.90;;;0.10;99.90;;;;;;5122697;28;20035;-82
2023/12/18 08:48:45;;;;;;;1999.90;999.90;;;0.10;99.90;;;;;;5120052;28;20093;-82
2023/12/18 08:51:11;;;;;;;1999.90;999.90;;;0.20;99.90;;;;;;5120291;28;20035;-81
2023/12/18 08:53:37;;;;;;;1999.90;999.90;;;0.10;99.90;;;;;;5101065;28;20060;-82
2023/12/18 08:56:04;;;;;;;1999.90;999.90;;;0.20;99.90;;;;;;5101756;28;20048;-83
2023/12/18 08:58:29;;;;;;;1999.90;999.90;;;0.20;99.90;;;;;;5099772;28;20505;-80
2023/12/18 09:00:57;;;;;;;1999.90;999.90;;;0.20;99.90;;;;;;5100736;28;20043;-81
2023/12/18 09:03:22;;;;;;;1999.90;999.90;;;0.30;99.90;;;;;;5098918;28;20055;-80
2023/12/18 09:05:48;;;;;;;1999.90;999.90;;;0.30;99.90;;;;;;5094965;28;20513;-76
2023/12/18 09:08:13;;;;;;;1999.90;999.90;;;0.30;99.90;;;;;;5096008;28;20489;-78
2023/12/18 09:10:39;;;;;;;1999.90;999.90;;;0.40;99.90;;;;;;5096191;28;20857;-77
2023/12/18 09:13:05;;;;;;;1999.90;999.90;;;0.40;99.90;;;;;;5096355;28;20033;-77
2023/12/18 09:15:31;;;;;;;1999.90;999.90;;;0.40;99.90;;;;;;5095786;28;20028;-77
2023/12/18 09:17:56;;;;;;;1999.90;999.90;;;0.50;99.90;;;;;;5095396;28;20390;-77
2023/12/18 09:20:22;;;;;;;1999.90;999.90;;;0.50;99.90;;;;;;5095722;28;20176;-76
2023/12/18 09:22:48;;;;;;;1999.90;999.90;;;0.50;99.90;;;;;;5095369;28;20483;-76
2023/12/18 09:25:14;;;;;;;1999.90;999.90;;;0.50;99.90;;;;;;5094971;28;20028;-76
2023/12/18 09:27:40;;;;;;;1999.90;999.90;;;0.60;99.90;;;;;;5093817;28;20041;-76
2023/12/18 09:30:06;;;;;;;1999.90;999.90;;;0.50;99.90;;;;;;5095683;28;20044;-77
2023/12/18 09:32:31;;;;;;;1999.90;999.90;;;0.50;99.90;;;;;;5095191;28;20525;-77
2023/12/18 09:34:57;;;;;;;1999.90;999.90;;;0.50;99.90;;;;;;5094807;28;20194;-78
2023/12/18 09:37:22;;;;;;;1999.90;999.90;;;0.50;99.90;;;;;;5095527;28;20392;-76
2023/12/18 09:39:48;;;;;;;1999.90;999.90;;;0.60;99.90;;;;;;5095566;28;20493;-77
2023/12/18 09:42:13;;;;;;;1999.90;999.90;;;0.40;99.90;;;;;;5095361;28;20032;-76
2023/12/18 09:44:40;;;;;;;1999.90;999.90;;;0.50;99.90;;;;;;5095477;28;20029;-77
2023/12/18 09:47:07;;;;;;;1999.90;999.90;;;0.60;99.90;;;;;;5094870;28;20032;-76
2023/12/18 09:49:34;;;;;;;1999.90;999.90;;;0.60;99.90;;;;;;5095571;28;20474;-75
2023/12/18 09:52:11;;;;;;;1999.90;999.90;;;0.60;99.90;;;;;;5096125;28;20099;-79
2023/12/18 09:54:39;;;;;;;1999.90;999.90;;;0.70;99.90;;;;;;5095921;28;20063;-78
2023/12/18 09:57:07;;;;;;;1999.90;999.90;;;0.80;99.90;;;;;;5095114;28;20025;-78
2023/12/18 09:59:33;;;;;;;1999.90;999.90;;;0.80;99.90;;;;;;5095099;28;20068;-78
2023/12/18 10:01:59;;;;;;;1999.90;999.90;;;0.70;99.90;;;;;;5096610;28;20060;-80
2023/12/18 10:04:24;;;;;;;1999.90;999.90;;;0.80;99.90;;;;;;5096708;28;20033;-80
2023/12/18 10:06:54;;;;;;;1999.90;999.90;;;0.80;99.90;;;;;;5096732;28;20040;-80
2023/12/18 10:09:19;;;;;;;1999.90;999.90;;;0.80;99.90;;;;;;5098150;28;20405;-80
2023/12/18 10:11:48;;;;;;;1999.90;999.90;;;0.80;99.90;;;;;;5097997;28;20033;-80
2023/12/18 10:14:16;;;;;;;1999.90;999.90;;;0.90;99.90;;;;;;5097801;28;20042;-80
2023/12/18 10:16:42;;;;;;;1999.90;999.90;;;0.90;99.90;;;;;;5097680;28;20110;-80
2023/12/18 10:19:08;;;;;;;1999.90;999.90;;;0.90;99.90;;;;;;5096589;28;20087;-80
2023/12/18 10:21:34;;;;;;;1999.90;999.90;;;1.00;99.90;;;;;;5097580;28;20052;-80
2023/12/18 10:24:01;;;;;;;1999.90;999.90;;;1.00;99.90;;;;;;5098184;28;20071;-83
2023/12/18 10:26:28;;;;;;;1999.90;999.90;;;1.00;99.90;;;;;;5098332;28;20078;-80
2023/12/18 10:28:54;;;;;;;1999.90;999.90;;;0.90;99.90;;;;;;5098146;28;20120;-80
2023/12/18 10:31:20;;;;;;;1999.90;999.90;;;1.00;99.90;;;;;;5100485;28;20112;-79
2023/12/18 10:33:45;;;;;;;1999.90;999.90;;;1.00;99.90;;;;;;5099230;28;20024;-81
2023/12/18 10:36:14;;;;;;;1999.90;999.90;;;1.10;99.90;;;;;;5097811;28;20044;-80
2023/12/18 10:38:42;;;;;;;1999.90;999.90;;;1.10;99.90;;;;;;5096899;28;20448;-82
2023/12/18 10:41:09;;;;;;;1999.90;999.90;;;1.30;99.90;;;;;;5098219;28;20047;-83
2023/12/18 10:43:36;;;;;;;1999.90;999.90;;;1.40;99.90;;;;;;5095725;28;20020;-82
2023/12/18 10:46:05;;;;;;;1999.90;999.90;;;1.40;99.90;;;;;;5097189;28;20110;-82
2023/12/18 10:48:32;;;;;;;1999.90;999.90;;;1.60;99.90;;;;;;5096954;28;20509;-83
2023/12/18 10:50:59;;;;;;;1999.90;999.90;;;1.70;99.90;;;;;;5097888;28;20141;-82
2023/12/18 10:53:25;;;;;;;1999.90;999.90;;;1.70;99.90;;;;;;5097929;28;20031;-83
2023/12/18 10:55:54;;;;;;;1999.90;999.90;;;1.80;99.90;;;;;;5099263;28;20041;-82
2023/12/18 10:58:20;;;;;;;1999.90;999.90;;;2.00;99.90;;;;;;5098753;28;20032;-82
2023/12/18 11:00:46;;;;;;;1999.90;999.90;;;2.00;99.90;;;;;;5101737;28;20047;-84
2023/12/18 11:03:13;;;;;;;1999.90;999.90;;;2.00;99.90;;;;;;5101948;28;20120;-82
2023/12/18 11:05:41;;;;;;;1999.90;999.90;;;2.00;99.90;;;;;;5101833;28;20037;-82
2023/12/18 11:08:07;;;;;;;1999.90;999.90;;;2.10;99.90;;;;;;5095115;28;20063;-82
2023/12/18 11:10:38;;;;;;;1999.90;999.90;;;2.10;99.90;;;;;;5097203;28;20575;-82
2023/12/18 11:13:28;;;;;;;1999.90;999.90;;;2.00;99.90;;;;;;5097969;28;20483;-82
2023/12/18 11:26:12;;;;;;;1999.90;999.90;;;2.20;99.90;;;;;;5058169;28;20112;-82
2023/12/18 11:28:38;;;;;;;1999.90;999.90;;;2.30;99.90;;;;;;5063568;28;20088;-82
2023/12/18 11:31:05;;;;;;;1999.90;999.90;;;2.30;99.90;;;;;;5061294;28;20067;-79
2023/12/18 11:33:31;;;;;;;1999.90;999.90;;;2.20;99.90;;;;;;5064426;28;20037;-79
2023/12/18 11:35:57;;;;;;;1999.90;999.90;;;2.30;99.90;;;;;;5060147;28;20030;-80
2023/12/18 11:38:24;;;;;;;1999.90;999.90;;;2.30;99.90;;;;;;5060723;28;20045;-78
2023/12/18 11:40:52;;;;;;;1999.90;999.90;;;2.40;99.90;;;;;;5058945;28;20128;-81
2023/12/18 11:43:37;;;;;;;1999.90;999.90;;;2.30;99.90;;;;;;5057853;28;20049;-85
2023/12/18 11:46:08;;;;;;;1999.90;999.90;;;2.30;99.90;;;;;;5060323;28;20036;-81
2023/12/18 11:48:34;;;;;;;1999.90;999.90;;;2.20;99.90;;;;;;5059248;28;20164;-79
2023/12/18 11:51:02;;;;;;;1999.90;999.90;;;2.30;99.90;;;;;;5060781;28;20065;-78
2023/12/18 11:53:35;;;;;;;1999.90;999.90;;;2.20;99.90;;;;;;5062722;28;20029;-78
2023/12/18 11:56:08;;;;;;;1999.90;999.90;;;2.40;99.90;;;;;;5062068;28;20040;-79
2023/12/18 11:58:35;;;;;;;1999.90;999.90;;;2.60;99.90;;;;;;5061565;28;20108;-79
2023/12/18 12:01:01;;;;;;;1999.90;999.90;;;2.70;99.90;;;;;;5058482;28;20122;-83
2023/12/18 12:03:27;;;;;;;1999.90;999.90;;;2.80;99.90;;;;;;5057833;28;20114;-77
2023/12/18 12:05:53;;;;;;;1999.90;999.90;;;2.70;99.90;;;;;;5054694;28;20108;-76
2023/12/18 12:08:19;;;;;;;1999.90;999.90;;;2.60;99.90;;;;;;5058482;28;20466;-78